createdAt,value
2022-11-18T00:01:21.135Z,3.42
2022-11-18T00:03:47.722Z,3.83
2022-11-18T00:06:15.293Z,4.00
2022-11-18T00:08:41.852Z,4.05
2022-11-18T00:11:09.433Z,4.00
2022-11-18T00:13:55.758Z,3.72
2022-11-18T00:16:22.278Z,4.13
2022-11-18T00:18:48.568Z,3.25
2022-11-18T00:21:14.857Z,3.50
2022-11-18T00:23:41.196Z,3.22
2022-11-18T00:26:14.211Z,4.10
2022-11-18T00:28:41.069Z,3.42
2022-11-18T00:31:08.613Z,3.38
2022-11-18T00:33:36.760Z,3.53
2022-11-18T00:36:03.807Z,3.83
2022-11-18T00:38:30.377Z,3.50
2022-11-18T00:41:03.410Z,3.55
2022-11-18T00:43:29.775Z,3.05
2022-11-18T00:45:56.197Z,3.22
2022-11-18T00:48:22.685Z,4.10
2022-11-18T00:50:49.861Z,3.70
2022-11-18T00:53:16.405Z,3.15
2022-11-18T00:55:42.600Z,3.00
2022-11-18T00:58:08.794Z,3.78
2022-11-18T01:00:35.020Z,3.63
2022-11-18T01:03:02.458Z,3.20
2022-11-18T01:05:28.673Z,3.17
2022-11-18T01:07:54.877Z,3.67
2022-11-18T01:10:21.107Z,3.53
2022-11-18T01:13:05.805Z,3.30
2022-11-18T01:15:37.609Z,2.95
2022-11-18T01:18:03.811Z,3.25
2022-11-18T01:20:31.731Z,3.30
2022-11-18T01:22:57.919Z,3.33
2022-11-18T01:25:24.116Z,3.50
2022-11-18T01:27:50.333Z,3.05
2022-11-18T01:30:16.940Z,3.67
2022-11-18T01:32:43.455Z,3.70
2022-11-18T01:35:09.965Z,3.35
2022-11-18T01:37:36.222Z,3.42
2022-11-18T01:40:03.377Z,3.20
2022-11-18T01:42:29.606Z,3.53
2022-11-18T01:44:57.748Z,3.72
2022-11-18T01:47:25.693Z,3.58
2022-11-18T01:49:52.417Z,3.08
2022-11-18T01:52:18.711Z,3.70
2022-11-18T01:54:48.062Z,3.80
2022-11-18T01:57:17.138Z,3.95
2022-11-18T01:59:44.132Z,3.70
2022-11-18T02:02:11.911Z,3.63
2022-11-18T02:04:39.161Z,4.20
2022-11-18T02:07:05.988Z,4.03
2022-11-18T02:09:32.222Z,3.47
2022-11-18T02:11:58.616Z,3.35
2022-11-18T02:14:26.752Z,3.97
2022-11-18T02:17:11.709Z,3.53
2022-11-18T02:19:37.886Z,4.10
2022-11-18T02:22:24.217Z,4.72
2022-11-18T02:24:50.400Z,4.10
2022-11-18T02:27:27.016Z,4.88
2022-11-18T02:29:53.236Z,3.65
2022-11-18T02:32:24.724Z,3.45
2022-11-18T02:34:59.117Z,4.20
2022-11-18T02:37:31.142Z,4.03
2022-11-18T02:40:01.957Z,4.00
2022-11-18T02:42:29.518Z,3.80
2022-11-18T02:44:59.089Z,3.83
2022-11-18T02:47:27.139Z,3.90
2022-11-18T02:49:56.492Z,4.38
2022-11-18T02:52:23.950Z,4.20
2022-11-18T02:54:50.640Z,4.32
2022-11-18T02:57:18.110Z,3.90
2022-11-18T02:59:44.319Z,3.97
2022-11-18T03:02:15.610Z,3.25
2022-11-18T03:04:42.027Z,4.00
2022-11-18T03:07:17.503Z,4.07
2022-11-18T03:09:46.392Z,3.88
2022-11-18T03:12:23.845Z,3.83
2022-11-18T03:14:50.015Z,4.22
2022-11-18T03:17:23.252Z,3.70
2022-11-18T03:19:55.833Z,3.20
2022-11-18T03:22:34.788Z,3.65
2022-11-18T03:25:04.747Z,3.20
2022-11-18T03:27:36.904Z,3.58
2022-11-18T03:30:06.865Z,4.28
2022-11-18T03:32:36.328Z,4.50
2022-11-18T03:35:05.626Z,3.60
2022-11-18T03:37:33.141Z,3.33
2022-11-18T03:40:01.909Z,3.38
2022-11-18T03:42:35.098Z,3.83
2022-11-18T03:45:06.203Z,3.40
2022-11-18T03:47:34.742Z,3.80
2022-11-18T03:50:04.154Z,4.32
2022-11-18T03:52:31.613Z,3.92
2022-11-18T03:54:59.369Z,3.00
2022-11-18T03:57:30.180Z,3.63
2022-11-18T04:00:02.735Z,3.58
2022-11-18T04:02:29.622Z,3.88
2022-11-18T04:04:56.643Z,3.20
2022-11-18T04:07:34.401Z,3.80
2022-11-18T04:10:20.594Z,3.63
2022-11-18T04:12:50.360Z,3.70
2022-11-18T04:15:16.623Z,3.88
2022-11-18T04:17:43.174Z,4.28
2022-11-18T04:20:20.438Z,3.92
2022-11-18T04:22:47.010Z,3.83
2022-11-18T04:25:13.491Z,4.32
2022-11-18T04:27:39.890Z,3.35
2022-11-18T04:30:06.704Z,4.25
2022-11-18T04:32:33.355Z,3.50
2022-11-18T04:34:59.567Z,3.85
2022-11-18T04:37:25.924Z,3.45
2022-11-18T04:39:52.191Z,3.47
2022-11-18T04:42:18.438Z,3.67
2022-11-18T04:44:44.707Z,4.00
2022-11-18T04:47:10.904Z,3.92
2022-11-18T04:49:37.166Z,3.75
2022-11-18T04:52:03.896Z,3.67
2022-11-18T04:54:30.196Z,4.05
2022-11-18T04:56:56.544Z,3.72
2022-11-18T04:59:24.817Z,3.53
2022-11-18T05:01:51.288Z,3.80
2022-11-18T05:04:22.948Z,4.10
2022-11-18T05:09:16.084Z,3.80
2022-11-18T05:12:01.256Z,4.18
2022-11-18T05:14:28.364Z,3.75
2022-11-18T05:16:55.277Z,4.13
2022-11-18T05:19:21.615Z,3.80
2022-11-18T05:21:47.827Z,3.78
2022-11-18T05:24:14.191Z,3.70
2022-11-18T05:26:40.384Z,3.90
2022-11-18T05:29:06.623Z,3.70
2022-11-18T05:31:32.821Z,3.33
2022-11-18T05:33:59.065Z,3.47
2022-11-18T05:36:25.318Z,3.85
2022-11-18T05:38:51.645Z,3.58
2022-11-18T05:41:36.683Z,3.63
2022-11-18T05:44:03.460Z,3.22
2022-11-18T05:46:30.156Z,3.60
2022-11-18T05:48:56.428Z,3.97
2022-11-18T05:51:22.822Z,3.83
2022-11-18T05:53:50.227Z,3.13
2022-11-18T05:56:25.341Z,3.10
2022-11-18T05:58:51.537Z,3.70
2022-11-18T06:01:20.602Z,3.22
2022-11-18T06:03:47.155Z,2.58
2022-11-18T06:06:15.065Z,3.00
2022-11-18T06:08:44.285Z,2.78
2022-11-18T06:11:14.866Z,3.08
2022-11-18T06:13:49.887Z,3.08
2022-11-18T06:16:17.623Z,3.20
2022-11-18T06:18:43.891Z,3.38
2022-11-18T06:21:10.168Z,3.22
2022-11-18T06:23:37.359Z,3.78
2022-11-18T06:26:03.631Z,3.25
2022-11-18T06:28:29.933Z,2.95
2022-11-18T06:30:56.176Z,3.20
2022-11-18T06:33:22.387Z,3.25
2022-11-18T06:35:48.611Z,3.65
2022-11-18T06:38:14.871Z,3.70
2022-11-18T06:40:44.600Z,3.65
2022-11-18T06:43:30.339Z,2.75
2022-11-18T06:46:18.712Z,3.15
2022-11-18T06:48:45.224Z,3.28
2022-11-18T06:51:11.504Z,2.95
2022-11-18T06:53:37.751Z,3.72
2022-11-18T06:56:04.938Z,2.83
2022-11-18T06:58:31.307Z,3.40
2022-11-18T07:00:57.605Z,3.15
2022-11-18T07:03:23.883Z,3.15
2022-11-18T07:05:50.087Z,2.90
2022-11-18T07:08:16.290Z,3.38
2022-11-18T07:10:42.527Z,3.40
2022-11-18T07:13:08.721Z,3.08
2022-11-18T07:15:34.906Z,2.95
2022-11-18T07:18:01.077Z,3.20
2022-11-18T07:20:27.276Z,2.97
2022-11-18T07:22:53.864Z,3.67
2022-11-18T07:25:20.288Z,4.13
2022-11-18T07:27:47.016Z,3.00
2022-11-18T07:30:13.412Z,3.88
2022-11-18T07:32:39.597Z,3.85
2022-11-18T07:35:06.059Z,3.25
2022-11-18T07:37:32.238Z,3.65
2022-11-18T07:39:59.767Z,3.90
2022-11-18T07:42:25.977Z,3.42
2022-11-18T07:44:52.161Z,3.90
2022-11-18T07:47:18.374Z,4.35
2022-11-18T07:49:44.596Z,3.97
2022-11-18T07:52:10.790Z,3.83
2022-11-18T07:54:37.077Z,3.63
2022-11-18T07:57:03.363Z,4.40
2022-11-18T07:59:29.586Z,3.78
2022-11-18T08:01:57.433Z,3.97
2022-11-18T08:04:24.419Z,4.15
2022-11-18T08:06:50.627Z,3.80
2022-11-18T08:09:17.167Z,3.63
2022-11-18T08:11:43.594Z,4.40
2022-11-18T08:14:09.849Z,3.67
2022-11-18T08:16:36.066Z,3.63
2022-11-18T08:19:02.421Z,3.90
2022-11-18T08:21:28.788Z,3.88
2022-11-18T08:23:55.995Z,3.88
2022-11-18T08:26:22.204Z,3.33
2022-11-18T08:28:48.816Z,3.63
2022-11-18T08:31:19.301Z,3.10
2022-11-18T08:33:45.518Z,3.85
2022-11-18T08:36:14.763Z,3.55
2022-11-18T08:38:41.001Z,3.70
2022-11-18T08:41:07.263Z,3.50
2022-11-18T08:43:35.494Z,3.53
2022-11-18T08:46:02.095Z,3.50
2022-11-18T08:48:28.280Z,5.03
2022-11-18T08:50:54.857Z,3.38
2022-11-18T08:53:21.065Z,3.47
2022-11-18T08:55:50.873Z,4.00
2022-11-18T08:58:20.603Z,3.28
2022-11-18T09:00:46.870Z,2.90
2022-11-18T09:03:13.068Z,3.00
2022-11-18T09:05:39.284Z,3.75
2022-11-18T09:08:05.783Z,3.67
2022-11-18T09:10:32.622Z,3.00
2022-11-18T09:13:18.132Z,3.60
2022-11-18T09:15:45.013Z,3.60
2022-11-18T09:18:11.214Z,3.35
2022-11-18T09:20:37.414Z,3.22
2022-11-18T09:23:03.623Z,3.22
2022-11-18T09:25:29.822Z,3.85
2022-11-18T09:27:56.200Z,3.42
2022-11-18T09:30:22.590Z,3.22
2022-11-18T09:32:50.297Z,3.50
2022-11-18T09:35:16.497Z,3.15
2022-11-18T09:37:42.722Z,3.28
2022-11-18T09:40:14.408Z,2.58
2022-11-18T09:42:59.377Z,3.25
2022-11-18T09:45:30.292Z,2.20
2022-11-18T09:47:57.670Z,2.47
2022-11-18T09:53:18.585Z,2.42
2022-11-18T09:55:45.055Z,2.13
2022-11-18T09:58:34.368Z,2.22
2022-11-18T10:01:01.083Z,1.95
2022-11-18T10:03:28.677Z,2.47
2022-11-18T10:06:03.479Z,1.88
2022-11-18T10:08:35.861Z,1.80
2022-11-18T10:11:14.452Z,1.75
2022-11-18T10:13:59.647Z,2.22
2022-11-18T10:16:39.268Z,1.92
2022-11-18T10:19:11.463Z,1.90
2022-11-18T10:22:01.062Z,11.95
2022-11-18T10:24:35.640Z,4.80
2022-11-18T10:27:02.480Z,3.72
2022-11-18T10:29:28.724Z,3.75
2022-11-18T10:32:04.379Z,2.67
2022-11-18T10:34:31.882Z,2.38
2022-11-18T10:36:59.798Z,4.20
2022-11-18T10:39:26.172Z,2.50
2022-11-18T10:41:53.335Z,2.22
2022-11-18T10:44:29.787Z,1.98
2022-11-18T10:46:56.254Z,1.98
2022-11-18T10:49:22.567Z,2.03
2022-11-18T10:52:04.355Z,1.77
2022-11-18T10:54:30.553Z,1.38
2022-11-18T10:57:01.367Z,1.80
2022-11-18T10:59:27.645Z,1.70
2022-11-18T11:02:17.324Z,2.15
2022-11-18T11:04:44.390Z,1.23
2022-11-18T11:07:32.084Z,1.83
2022-11-18T11:10:09.147Z,1.15
2022-11-18T11:12:48.860Z,1.40
2022-11-18T11:15:20.755Z,1.73
2022-11-18T11:18:20.082Z,1.65
2022-11-18T11:20:46.277Z,1.30
2022-11-18T11:23:15.675Z,1.80
2022-11-18T11:28:36.605Z,1.50
2022-11-18T11:31:21.707Z,1.40
2022-11-18T11:34:07.578Z,1.33
2022-11-18T11:36:41.602Z,1.75
2022-11-18T11:39:26.301Z,1.60
2022-11-18T11:42:05.974Z,1.50
2022-11-18T11:44:40.125Z,1.40
2022-11-18T11:47:24.910Z,1.63
2022-11-18T11:50:00.824Z,2.22
2022-11-18T11:53:02.631Z,1.85
2022-11-18T11:55:33.853Z,1.67
2022-11-18T11:58:00.041Z,1.45
2022-11-18T12:00:28.660Z,2.00
2022-11-18T12:03:03.144Z,1.38
2022-11-18T12:05:34.313Z,1.70
2022-11-18T12:08:02.149Z,1.98
2022-11-18T12:10:48.764Z,2.42
2022-11-18T12:13:18.040Z,1.65
2022-11-18T12:16:02.369Z,2.10
2022-11-18T12:18:41.782Z,1.60
2022-11-18T12:21:07.986Z,1.67
2022-11-18T12:23:34.270Z,1.48
2022-11-18T12:26:00.492Z,1.90
2022-11-18T12:28:35.011Z,1.50
2022-11-18T12:31:19.485Z,2.00
2022-11-18T12:33:56.850Z,1.60
2022-11-18T12:36:27.083Z,1.70
2022-11-18T12:38:54.027Z,1.75
2022-11-18T12:42:04.842Z,1.83
2022-11-18T12:44:31.250Z,2.00
2022-11-18T12:46:58.508Z,1.83
2022-11-18T12:49:24.975Z,1.90
2022-11-18T12:51:55.235Z,1.83
2022-11-18T12:54:24.459Z,1.83
2022-11-18T12:56:51.358Z,1.90
2022-11-18T12:59:26.077Z,1.60
2022-11-18T13:02:01.201Z,1.95
2022-11-18T13:04:27.422Z,1.92
2022-11-18T13:06:55.929Z,1.98
2022-11-18T13:09:25.619Z,1.98
2022-11-18T13:11:54.903Z,1.48
2022-11-18T13:14:43.206Z,1.70
2022-11-18T13:17:41.923Z,1.73
2022-11-18T13:20:18.893Z,1.75
2022-11-18T13:23:10.369Z,1.77
2022-11-18T13:25:36.786Z,1.90
2022-11-18T13:28:18.849Z,1.92
2022-11-18T13:30:49.108Z,2.28
2022-11-18T13:33:15.344Z,2.42
2022-11-18T13:35:41.660Z,2.13
2022-11-18T13:38:19.238Z,2.05
2022-11-18T13:41:07.238Z,1.95
2022-11-18T13:43:36.854Z,1.92
2022-11-18T13:46:04.700Z,2.10
2022-11-18T13:48:33.128Z,1.98
2022-11-18T13:51:00.140Z,2.13
2022-11-18T13:53:39.126Z,1.90
2022-11-18T13:56:14.673Z,2.13
2022-11-18T13:59:10.339Z,1.90
2022-11-18T14:01:31.297Z,1.65
2022-11-18T14:04:02.199Z,1.75
2022-11-18T14:06:28.421Z,2.13
2022-11-18T14:09:04.324Z,1.60
2022-11-18T14:11:34.677Z,2.13
2022-11-18T14:14:00.868Z,2.03
2022-11-18T14:16:31.422Z,2.13
2022-11-18T14:18:57.691Z,2.17
2022-11-18T14:21:28.310Z,1.88
2022-11-18T14:23:54.837Z,1.80
2022-11-18T14:26:28.282Z,2.08
2022-11-18T14:28:56.022Z,2.10
2022-11-18T14:31:24.723Z,1.88
2022-11-18T14:34:09.555Z,1.98
2022-11-18T14:36:35.831Z,1.80
2022-11-18T14:39:31.483Z,1.85
2022-11-18T14:41:48.310Z,1.80
2022-11-18T14:44:14.773Z,2.17
2022-11-18T14:46:42.298Z,2.00
2022-11-18T14:49:16.962Z,1.45
2022-11-18T14:51:43.820Z,1.92
2022-11-18T14:54:14.198Z,1.70
2022-11-18T14:56:40.719Z,2.67
2022-11-18T14:59:06.922Z,2.20
2022-11-18T15:01:33.390Z,1.88
2022-11-18T15:03:59.634Z,1.80
2022-11-18T15:06:25.974Z,1.98
2022-11-18T15:08:52.866Z,1.90
2022-11-18T15:11:19.494Z,1.60
2022-11-18T15:13:45.889Z,1.75
2022-11-18T15:16:14.499Z,2.20
2022-11-18T15:18:40.906Z,2.33
2022-11-18T15:21:07.135Z,2.05
2022-11-18T15:23:33.319Z,1.88
2022-11-18T15:25:59.512Z,1.85
2022-11-18T15:28:25.698Z,2.20
2022-11-18T15:30:51.879Z,2.40
2022-11-18T15:33:18.077Z,2.05
2022-11-18T15:35:44.294Z,2.00
2022-11-18T15:38:11.131Z,2.20
2022-11-18T15:40:38.631Z,2.28
2022-11-18T15:43:04.994Z,2.35
2022-11-18T15:45:31.262Z,2.38
2022-11-18T15:47:57.512Z,2.80
2022-11-18T15:50:23.917Z,2.38
2022-11-18T15:52:50.102Z,2.63
2022-11-18T15:55:16.354Z,2.70
2022-11-18T15:57:42.573Z,2.15
2022-11-18T16:00:09.484Z,2.08
2022-11-18T16:02:35.760Z,2.60
2022-11-18T16:05:02.050Z,2.90
2022-11-18T16:07:28.362Z,2.40
2022-11-18T16:10:13.109Z,2.53
2022-11-18T16:12:48.569Z,2.67
2022-11-18T16:15:43.968Z,2.15
2022-11-18T16:18:10.490Z,2.60
2022-11-18T16:20:36.782Z,2.42
2022-11-18T16:23:03.016Z,2.55
2022-11-18T16:25:29.287Z,2.80
2022-11-18T16:27:55.994Z,2.78
2022-11-18T16:30:41.430Z,2.35
2022-11-18T16:33:07.635Z,2.10
2022-11-18T16:35:33.867Z,2.60
2022-11-18T16:38:00.126Z,2.42
2022-11-18T16:40:28.607Z,3.30
2022-11-18T16:42:54.937Z,8.73
2022-11-18T16:45:21.159Z,5.53
2022-11-18T16:47:47.345Z,6.07
2022-11-18T16:50:13.573Z,5.20
2022-11-18T16:52:39.815Z,4.82
2022-11-18T16:55:06.184Z,4.55
2022-11-18T16:57:32.389Z,4.60
2022-11-18T16:59:58.616Z,4.45
2022-11-18T17:02:24.862Z,4.38
2022-11-18T17:04:51.204Z,3.90
2022-11-18T17:07:17.842Z,3.55
2022-11-18T17:09:44.169Z,4.25
2022-11-18T17:12:10.381Z,3.67
2022-11-18T17:14:38.162Z,4.38
2022-11-18T17:17:04.453Z,3.28
2022-11-18T17:19:30.695Z,3.20
2022-11-18T17:21:57.297Z,3.38
2022-11-18T17:24:24.054Z,2.95
2022-11-18T17:26:51.877Z,2.90
2022-11-18T17:29:18.439Z,3.10
2022-11-18T17:31:45.014Z,2.70
2022-11-18T17:34:12.037Z,2.55
2022-11-18T17:36:38.675Z,2.90
2022-11-18T17:39:04.924Z,2.80
2022-11-18T17:41:49.819Z,3.30
2022-11-18T17:44:17.278Z,2.95
2022-11-18T17:46:44.109Z,3.63
2022-11-18T17:49:13.023Z,2.60
2022-11-18T17:51:39.257Z,2.88
2022-11-18T17:54:05.627Z,3.72
2022-11-18T17:56:31.829Z,2.78
2022-11-18T17:58:58.139Z,3.45
2022-11-18T18:01:24.467Z,3.20
2022-11-18T18:03:50.763Z,2.92
2022-11-18T18:06:17.395Z,2.50
2022-11-18T18:08:43.605Z,3.35
2022-11-18T18:11:11.166Z,3.38
2022-11-18T18:13:56.170Z,2.90
2022-11-18T18:16:22.693Z,3.20
2022-11-18T18:18:48.961Z,4.25
2022-11-18T18:21:15.583Z,3.53
2022-11-18T18:23:41.853Z,3.22
2022-11-18T18:26:09.357Z,3.00
2022-11-18T18:28:35.741Z,3.28
2022-11-18T18:31:02.977Z,3.60
2022-11-18T18:33:29.758Z,3.42
2022-11-18T18:35:57.263Z,5.90
2022-11-18T18:38:23.831Z,6.50
2022-11-18T18:40:50.096Z,5.90
2022-11-18T18:43:16.288Z,6.07
2022-11-18T18:46:01.255Z,5.57
2022-11-18T18:48:27.484Z,4.63
2022-11-18T18:50:53.751Z,4.53
2022-11-18T18:53:19.933Z,4.97
2022-11-18T18:55:46.349Z,4.53
2022-11-18T18:58:12.526Z,3.92
2022-11-18T19:00:38.760Z,3.83
2022-11-18T19:03:05.013Z,4.10
2022-11-18T19:06:03.257Z,3.33
2022-11-18T19:08:17.403Z,2.83
2022-11-18T19:10:43.603Z,3.22
2022-11-18T19:13:09.810Z,3.10
2022-11-18T19:15:36.230Z,3.45
2022-11-18T19:18:02.533Z,3.10
2022-11-18T19:20:36.291Z,2.95
2022-11-18T19:23:08.721Z,2.97
2022-11-18T19:25:36.609Z,2.92
2022-11-18T19:28:03.007Z,3.00
2022-11-18T19:30:29.230Z,4.00
2022-11-18T19:32:56.247Z,4.03
2022-11-18T19:35:22.643Z,4.90
2022-11-18T19:37:48.930Z,4.40
2022-11-18T19:40:15.196Z,4.57
2022-11-18T19:42:42.609Z,5.47
2022-11-18T19:45:09.794Z,4.63
2022-11-18T19:47:36.351Z,5.75
2022-11-18T19:50:02.705Z,6.13
2022-11-18T19:52:29.191Z,5.80
2022-11-18T19:54:57.471Z,6.68
2022-11-18T19:57:24.385Z,6.47
2022-11-18T19:59:50.749Z,7.43
2022-11-18T20:02:16.986Z,6.50
2022-11-18T20:05:03.158Z,5.80
2022-11-18T20:07:29.766Z,5.47
2022-11-18T20:09:55.979Z,5.63
2022-11-18T20:12:22.174Z,5.40
2022-11-18T20:14:48.362Z,4.72
2022-11-18T20:17:14.567Z,4.95
2022-11-18T20:19:40.778Z,5.95
2022-11-18T20:22:06.960Z,4.43
2022-11-18T20:24:33.185Z,5.32
2022-11-18T20:26:59.409Z,5.22
2022-11-18T20:29:25.639Z,6.40
2022-11-18T20:31:51.972Z,6.97
2022-11-18T20:34:18.267Z,5.32
2022-11-18T20:36:44.650Z,5.88
2022-11-18T20:39:12.477Z,5.18
2022-11-18T20:41:38.661Z,5.43
2022-11-18T20:44:05.074Z,5.43
2022-11-18T20:46:33.118Z,4.13
2022-11-18T20:48:59.478Z,5.15
2022-11-18T20:51:26.873Z,5.60
2022-11-18T20:53:54.008Z,5.72
2022-11-18T20:56:27.396Z,6.18
2022-11-18T20:58:53.751Z,5.75
2022-11-18T21:01:21.323Z,6.05
2022-11-18T21:03:48.634Z,4.50
2022-11-18T21:06:14.955Z,4.72
2022-11-18T21:08:41.967Z,5.05
2022-11-18T21:11:12.911Z,5.43
2022-11-18T21:13:58.226Z,5.57
2022-11-18T21:16:25.093Z,5.72
2022-11-18T21:18:51.493Z,5.57
2022-11-18T21:21:36.555Z,4.47
2022-11-18T21:24:03.212Z,4.57
2022-11-18T21:26:30.221Z,4.82
2022-11-18T21:28:57.352Z,4.95
2022-11-18T21:31:24.343Z,4.82
2022-11-18T21:33:50.981Z,4.60
2022-11-18T21:36:17.551Z,4.75
2022-11-18T21:38:43.831Z,4.32
2022-11-18T21:41:10.420Z,4.85
2022-11-18T21:44:03.752Z,5.22
2022-11-18T21:46:23.908Z,4.70
2022-11-18T21:48:50.367Z,4.60
2022-11-18T21:51:18.613Z,7.68
2022-11-18T21:53:44.931Z,5.78
2022-11-18T21:56:12.337Z,6.53
2022-11-18T21:58:38.728Z,6.60
2022-11-18T22:01:07.678Z,6.75
2022-11-18T22:03:34.712Z,5.97
2022-11-18T22:06:02.154Z,5.35
2022-11-18T22:08:28.993Z,5.88
2022-11-18T22:10:55.207Z,5.28
2022-11-18T22:13:21.421Z,5.63
2022-11-18T22:15:47.628Z,5.50
2022-11-18T22:18:13.819Z,6.72
2022-11-18T22:20:42.414Z,7.43
2022-11-18T22:23:09.778Z,6.13
2022-11-18T22:25:35.961Z,6.32
2022-11-18T22:28:02.295Z,6.38
2022-11-18T22:30:28.524Z,7.40
2022-11-18T22:32:54.725Z,6.45
2022-11-18T22:35:20.933Z,6.47
2022-11-18T22:37:47.121Z,6.68
2022-11-18T22:40:13.320Z,6.30
2022-11-18T22:42:48.599Z,7.15
2022-11-18T22:45:15.539Z,6.22
2022-11-18T22:47:42.459Z,5.55
2022-11-18T22:50:09.239Z,6.05
2022-11-18T22:52:35.992Z,6.32
2022-11-18T22:55:02.285Z,5.85
2022-11-18T22:57:32.643Z,6.18
2022-11-18T22:59:58.829Z,6.00
2022-11-18T23:02:25.159Z,6.10
2022-11-18T23:04:51.718Z,6.00
2022-11-18T23:07:18.070Z,6.57
2022-11-18T23:09:44.614Z,5.85
2022-11-18T23:12:29.580Z,6.03
2022-11-18T23:14:55.834Z,6.53
2022-11-18T23:17:22.076Z,6.00
2022-11-18T23:19:48.453Z,6.45
2022-11-18T23:22:14.697Z,6.00
2022-11-18T23:24:41.564Z,6.07
2022-11-18T23:27:07.958Z,5.82
2022-11-18T23:29:34.515Z,6.00
2022-11-18T23:32:01.026Z,6.70
2022-11-18T23:34:27.682Z,5.95
2022-11-18T23:36:54.425Z,6.32
2022-11-18T23:39:20.988Z,6.47
2022-11-18T23:41:47.577Z,6.60
2022-11-18T23:44:13.774Z,6.05
2022-11-18T23:46:39.973Z,6.30
2022-11-18T23:49:09.332Z,5.85
2022-11-18T23:51:35.747Z,6.35
2022-11-18T23:54:02.042Z,6.95
2022-11-18T23:56:28.222Z,6.78
2022-11-18T23:58:55.300Z,6.38
